Time;durP1;ratioP1;P1;durP2;ratioP2;P2;SDS_P1;SDS_P2;PMS_P1;PMS_P2;Temp;Humidity;BMP_temperature;BMP_pressure;BME280_temperature;BME280_humidity;BME280_pressure;Samples;Min_cycle;Max_cycle;Signal;HPM_P1;HPM_P2
2022/03/28 00:01:02;;;;;;;11.27;6.13;;;;;;;10.60;61.68;102444.53;2111050;28;20051;-79
2022/03/28 00:02:25;;;;;;;13.75;7.38;;;;;;;10.62;61.84;102441.16;2111391;28;20198;-79
2022/03/28 00:03:46;;;;;;;15.73;6.43;;;;;;;10.59;61.77;102442.72;2112141;28;20035;-78
2022/03/28 00:05:10;;;;;;;14.00;7.40;;;;;;;10.57;61.80;102434.75;2112312;28;20549;-79
2022/03/28 00:06:32;;;;;;;14.35;7.38;;;;;;;10.53;61.94;102435.47;2112377;28;20043;-79
2022/03/28 00:07:55;;;;;;;15.13;8.02;;;;;;;10.53;61.84;102434.56;2110864;28;20734;-78
2022/03/28 00:09:17;;;;;;;15.80;8.13;;;;;;;10.52;61.89;102432.75;2112268;28;20059;-78
2022/03/28 00:10:39;;;;;;;12.48;7.07;;;;;;;10.52;61.79;102430.09;2112540;28;20048;-79
2022/03/28 00:12:03;;;;;;;13.68;7.82;;;;;;;10.51;61.37;102444.13;2112232;28;20813;-80
2022/03/28 00:13:25;;;;;;;13.85;7.20;;;;;;;10.46;61.67;102443.06;2114372;28;20164;-79
2022/03/28 00:14:48;;;;;;;17.75;9.02;;;;;;;10.42;61.88;102442.03;2109376;28;20043;-79
2022/03/28 00:16:10;;;;;;;12.82;7.43;;;;;;;10.44;61.96;102442.06;2109511;28;20088;-79
2022/03/28 00:17:33;;;;;;;12.75;6.82;;;;;;;10.48;61.96;102446.66;2111024;28;20483;-79
2022/03/28 00:18:56;;;;;;;13.82;6.35;;;;;;;10.49;61.94;102443.19;2109692;28;20464;-79
2022/03/28 00:20:19;;;;;;;9.98;4.50;;;;;;;10.51;62.20;102445.03;2110306;27;20154;-78
2022/03/28 00:21:41;;;;;;;9.63;4.72;;;;;;;10.54;62.08;102444.28;2111426;28;20043;-78
2022/03/28 00:23:03;;;;;;;11.82;5.70;;;;;;;10.56;61.98;102443.53;2111037;28;20181;-78
2022/03/28 00:24:26;;;;;;;10.38;6.13;;;;;;;10.52;61.92;102451.22;2120317;27;20368;-78
2022/03/28 00:25:47;;;;;;;15.93;7.75;;;;;;;10.51;62.08;102447.69;2115046;28;20090;-78
2022/03/28 00:27:11;;;;;;;11.88;5.88;;;;;;;10.45;61.82;102444.78;2110480;28;20050;-78
2022/03/28 00:28:33;;;;;;;12.73;6.93;;;;;;;10.33;61.86;102446.91;2102776;28;20048;-78
2022/03/28 00:29:57;;;;;;;12.68;6.57;;;;;;;10.28;62.00;102452.00;2101700;28;20040;-78
2022/03/28 00:31:19;;;;;;;14.23;6.25;;;;;;;10.24;62.23;102444.75;2100458;28;20051;-78
2022/03/28 00:32:42;;;;;;;12.50;7.78;;;;;;;10.23;62.24;102440.34;2084384;28;20053;-78
2022/03/28 00:34:05;;;;;;;11.75;5.60;;;;;;;10.22;62.47;102446.44;2104976;28;20044;-78
2022/03/28 00:35:29;;;;;;;13.43;6.60;;;;;;;10.22;62.44;102440.25;2112187;28;20040;-78
2022/03/28 00:36:52;;;;;;;13.27;7.25;;;;;;;10.24;62.41;102446.50;2103902;28;20129;-76
2022/03/28 00:38:15;;;;;;;16.77;7.28;;;;;;;10.25;62.64;102443.91;2107035;28;20036;-78
2022/03/28 00:39:38;;;;;;;15.98;7.03;;;;;;;10.24;62.64;102447.38;2111864;28;20036;-78
2022/03/28 00:41:00;;;;;;;15.45;7.63;;;;;;;10.24;62.65;102442.09;2110705;28;20044;-78
2022/03/28 00:42:24;;;;;;;16.25;7.10;;;;;;;10.25;62.50;102449.19;2110782;28;20075;-78
2022/03/28 00:43:53;;;;;;;20.25;8.27;;;;;;;10.22;62.82;102445.53;2103608;28;20113;-78
2022/03/28 00:45:18;;;;;;;25.15;9.95;;;;;;;10.22;62.59;102441.16;2104188;28;20585;-78
2022/03/28 00:46:40;;;;;;;18.38;8.02;;;;;;;10.21;62.49;102441.09;2108892;28;20040;-78
2022/03/28 00:48:03;;;;;;;16.98;7.30;;;;;;;10.19;62.55;102438.38;2106161;28;20048;-77
2022/03/28 00:49:26;;;;;;;19.38;7.60;;;;;;;10.18;62.65;102440.94;2106906;28;20040;-78
2022/03/28 00:50:49;;;;;;;12.95;6.10;;;;;;;10.17;62.59;102439.16;2110963;28;20469;-77
2022/03/28 00:52:12;;;;;;;15.15;6.68;;;;;;;10.16;62.62;102439.97;2113214;28;20057;-79
2022/03/28 00:53:34;;;;;;;14.02;8.10;;;;;;;10.18;62.90;102436.56;2111847;28;20052;-77
2022/03/28 00:54:59;;;;;;;17.65;8.95;;;;;;;10.20;62.73;102441.91;2107400;28;20570;-78
2022/03/28 00:56:21;;;;;;;12.48;7.43;;;;;;;10.25;62.70;102435.09;2112144;28;20142;-78
2022/03/28 00:57:45;;;;;;;13.63;6.00;;;;;;;10.27;62.68;102434.34;2111821;28;20047;-78
2022/03/28 00:59:07;;;;;;;13.65;6.72;;;;;;;10.30;62.54;102433.59;2112126;28;20104;-78
2022/03/28 01:00:28;;;;;;;10.85;6.70;;;;;;;10.32;62.46;102430.16;2108089;28;20055;-77
2022/03/28 01:01:51;;;;;;;13.13;5.47;;;;;;;10.34;62.41;102431.13;2111815;28;20051;-78
2022/03/28 01:03:13;;;;;;;10.75;5.13;;;;;;;10.37;62.27;102427.75;2110725;28;20084;-79
2022/03/28 01:04:37;;;;;;;9.63;5.15;;;;;;;10.39;62.18;102423.41;2106116;28;20048;-78
2022/03/28 01:05:59;;;;;;;9.85;4.90;;;;;;;10.36;62.17;102421.56;2114822;27;20070;-78
2022/03/28 01:07:21;;;;;;;8.77;5.10;;;;;;;10.31;62.20;102422.16;2108477;27;20052;-78
2022/03/28 01:08:43;;;;;;;14.05;6.47;;;;;;;10.24;62.15;102413.06;2103276;28;20106;-78
2022/03/28 01:10:08;;;;;;;18.80;9.48;;;;;;;10.17;62.42;102420.69;2103526;28;20040;-78
2022/03/28 01:11:32;;;;;;;13.98;7.63;;;;;;;10.10;62.54;102419.47;2110459;28;20545;-78
2022/03/28 01:12:58;;;;;;;32.63;14.57;;;;;;;10.07;62.65;102413.16;2115703;27;20507;-78
2022/03/28 01:14:21;;;;;;;16.55;8.05;;;;;;;10.07;62.75;102415.78;2112230;28;20507;-78
2022/03/28 01:15:42;;;;;;;15.13;7.82;;;;;;;10.12;62.71;102415.16;2108929;28;20533;-78
2022/03/28 01:18:48;;;;;;;15.90;9.00;;;;;;;10.21;62.24;102406.78;2122914;27;20189;-78
2022/03/28 01:20:11;;;;;;;12.82;7.40;;;;;;;10.23;62.14;102406.03;2112997;28;20039;-78
2022/03/28 01:21:34;;;;;;;11.02;6.18;;;;;;;10.23;61.99;102400.75;2111674;28;20040;-78
2022/03/28 01:22:57;;;;;;;11.38;6.80;;;;;;;10.23;61.98;102400.75;2109055;28;20047;-79
2022/03/28 01:24:20;;;;;;;10.18;5.63;;;;;;;10.27;61.79;102397.38;2113423;28;20555;-79
2022/03/28 01:25:45;;;;;;;12.32;5.90;;;;;;;10.30;61.73;102394.91;2111577;28;20048;-78
2022/03/28 01:27:10;;;;;;;12.90;6.32;;;;;;;10.32;61.57;102392.28;2109892;28;20050;-79
2022/03/28 01:28:32;;;;;;;13.35;5.75;;;;;;;10.29;61.62;102392.19;2111763;28;20044;-78
2022/03/28 01:29:53;;;;;;;12.10;6.15;;;;;;;10.25;61.54;102392.88;2110513;28;20559;-79
2022/03/28 01:31:16;;;;;;;9.43;5.88;;;;;;;10.23;61.51;102398.09;2111422;28;20031;-78
2022/03/28 01:32:37;;;;;;;11.75;5.57;;;;;;;10.23;61.41;102394.56;2111826;28;20396;-78
2022/03/28 01:34:01;;;;;;;11.68;7.25;;;;;;;10.21;61.44;102385.66;2111617;28;20105;-79
2022/03/28 01:35:29;;;;;;;42.67;38.10;;;;;;;10.19;61.32;102396.16;2110931;28;20147;-78
2022/03/28 01:36:53;;;;;;;23.67;18.80;;;;;;;10.15;61.49;102390.66;2111303;28;20043;-78
2022/03/28 01:38:19;;;;;;;18.55;14.77;;;;;;;10.12;61.65;102396.69;2110467;28;20047;-77
2022/03/28 01:39:40;;;;;;;13.20;8.13;;;;;;;10.09;61.68;102388.66;2111254;28;20047;-79
2022/03/28 01:41:02;;;;;;;12.10;7.68;;;;;;;10.07;61.95;102402.59;2111710;28;20048;-79
2022/03/28 01:42:24;;;;;;;11.15;5.85;;;;;;;10.08;62.09;102394.75;2111278;28;20077;-79
2022/03/28 01:43:46;;;;;;;15.65;6.60;;;;;;;10.13;61.94;102395.84;2110839;28;20369;-79
2022/03/28 01:45:08;;;;;;;11.80;6.40;;;;;;;10.17;61.72;102403.13;2110561;28;20044;-78
2022/03/28 01:46:31;;;;;;;12.98;6.45;;;;;;;10.16;61.80;102396.00;2111571;28;20126;-78
2022/03/28 01:47:54;;;;;;;21.17;8.18;;;;;;;10.12;61.68;102401.06;2109871;28;20481;-79
2022/03/28 01:49:19;;;;;;;14.20;6.60;;;;;;;10.08;61.83;102402.66;2110522;28;20450;-79
2022/03/28 01:50:42;;;;;;;14.98;6.90;;;;;;;10.05;62.07;102401.63;2113364;28;20040;-79
2022/03/28 01:52:06;;;;;;;14.40;7.80;;;;;;;10.05;61.83;102397.25;2108712;28;20043;-79
2022/03/28 01:53:28;;;;;;;14.38;7.15;;;;;;;10.04;61.90;102398.09;2110698;28;20055;-79
2022/03/28 01:54:49;;;;;;;14.18;7.05;;;;;;;10.03;62.11;102398.03;2102909;28;20040;-78
2022/03/28 01:56:12;;;;;;;13.10;6.38;;;;;;;10.04;61.96;102408.66;2109431;28;20044;-79
2022/03/28 01:57:33;;;;;;;14.77;7.57;;;;;;;10.03;61.85;102404.22;2111696;28;20055;-80
2022/03/28 01:58:56;;;;;;;13.77;7.18;;;;;;;10.04;61.89;102405.13;2108302;28;20096;-78
2022/03/28 02:00:19;;;;;;;12.13;6.80;;;;;;;10.04;62.01;102406.03;2094936;28;20068;-78
2022/03/28 02:01:42;;;;;;;16.58;8.48;;;;;;;10.05;62.09;102402.53;2115777;27;20129;-79
2022/03/28 02:03:05;;;;;;;20.17;7.25;;;;;;;10.02;61.81;102407.69;2112948;28;20039;-78
2022/03/28 02:04:26;;;;;;;12.38;6.28;;;;;;;9.96;61.76;102408.31;2120110;27;20043;-79
2022/03/28 02:05:48;;;;;;;17.00;6.93;;;;;;;9.91;61.82;102401.91;2111327;28;20387;-78
2022/03/28 02:07:11;;;;;;;8.75;5.13;;;;;;;9.90;61.82;102405.41;2101577;28;20040;-76
2022/03/28 02:08:34;;;;;;;18.08;7.35;;;;;;;9.91;62.02;102403.69;2102815;28;20055;-78
2022/03/28 02:09:56;;;;;;;15.57;8.15;;;;;;;9.93;62.08;102405.53;2111586;28;20046;-79
2022/03/28 02:11:18;;;;;;;15.93;6.43;;;;;;;9.95;61.83;102403.88;2101877;28;20044;-78
2022/03/28 02:12:40;;;;;;;16.10;7.07;;;;;;;9.96;61.77;102403.03;2106794;28;20644;-78
2022/03/28 02:14:03;;;;;;;16.60;8.40;;;;;;;9.98;61.56;102392.53;2110018;28;20039;-78
2022/03/28 02:15:25;;;;;;;15.48;7.75;;;;;;;9.98;61.72;102404.00;2110938;28;20046;-78
2022/03/28 02:16:47;;;;;;;14.25;7.22;;;;;;;9.94;61.64;102398.53;2105535;28;20113;-78
2022/03/28 02:18:10;;;;;;;15.50;7.82;;;;;;;9.93;61.42;102407.25;2108303;28;20657;-78
2022/03/28 02:19:31;;;;;;;13.88;6.45;;;;;;;9.92;61.36;102400.19;2102599;28;20407;-78
2022/03/28 02:20:54;;;;;;;11.32;5.18;;;;;;;9.91;61.52;102404.53;2111500;28;20090;-78
2022/03/28 02:22:18;;;;;;;13.07;6.85;;;;;;;9.98;61.46;102405.72;2108795;28;20040;-78
2022/03/28 02:23:41;;;;;;;14.95;5.78;;;;;;;10.01;61.25;102405.88;2118886;27;20159;-78
2022/03/28 02:25:05;;;;;;;11.88;5.32;;;;;;;10.06;61.06;102406.06;2119303;27;20146;-78
2022/03/28 02:26:28;;;;;;;10.65;5.70;;;;;;;10.10;60.83;102402.75;2104780;28;20151;-78
2022/03/28 02:27:50;;;;;;;9.85;5.50;;;;;;;10.09;60.78;102412.41;2102784;28;20044;-78
2022/03/28 02:29:12;;;;;;;13.93;5.20;;;;;;;10.09;60.82;102412.41;2108833;28;20071;-78
2022/03/28 02:30:34;;;;;;;11.98;6.47;;;;;;;10.12;60.61;102408.97;2110969;28;20050;-78
2022/03/28 02:31:57;;;;;;;11.35;5.95;;;;;;;10.13;60.60;102409.03;2111341;28;20147;-79
2022/03/28 02:33:20;;;;;;;11.05;6.43;;;;;;;10.17;60.29;102410.13;2109786;28;20096;-77
2022/03/28 02:34:41;;;;;;;12.82;5.45;;;;;;;10.16;60.28;102405.66;2113543;28;20514;-78
2022/03/28 02:36:04;;;;;;;11.82;5.80;;;;;;;10.15;60.17;102409.13;2111018;28;20047;-78
2022/03/28 02:37:29;;;;;;;12.45;6.30;;;;;;;10.13;60.20;102403.78;2109612;28;20599;-78
2022/03/28 02:38:51;;;;;;;11.88;5.50;;;;;;;10.11;60.20;102399.28;2110253;28;20051;-78
2022/03/28 02:40:13;;;;;;;12.40;5.53;;;;;;;10.09;60.09;102401.84;2115103;27;20043;-78
2022/03/28 02:41:36;;;;;;;9.40;4.43;;;;;;;10.09;60.19;102411.50;2119581;27;20471;-78
2022/03/28 02:42:58;;;;;;;8.93;4.53;;;;;;;10.11;60.19;102410.69;2113888;27;20036;-78
2022/03/28 02:44:20;;;;;;;10.15;4.25;;;;;;;10.13;59.80;102401.13;2111038;28;20100;-78
2022/03/28 02:45:42;;;;;;;10.02;3.90;;;;;;;10.16;59.75;102408.28;2110106;28;20123;-78
2022/03/28 02:47:05;;;;;;;7.82;3.88;;;;;;;10.17;59.26;102400.47;2111240;28;20091;-79
2022/03/28 02:48:28;;;;;;;11.23;4.57;;;;;;;10.21;59.21;102399.75;2114117;27;20051;-78
2022/03/28 02:49:51;;;;;;;14.25;6.53;;;;;;;10.22;59.05;102401.56;2106733;28;20062;-78
2022/03/28 02:51:13;;;;;;;10.57;5.40;;;;;;;10.11;59.30;102405.44;2113889;28;20092;-79
2022/03/28 02:52:37;;;;;;;14.82;6.53;;;;;;;10.00;59.69;102411.97;2110459;28;20054;-78
2022/03/28 02:53:58;;;;;;;17.35;8.60;;;;;;;9.98;59.72;102418.91;2115919;28;20035;-78
2022/03/28 02:55:21;;;;;;;11.25;4.75;;;;;;;9.99;59.90;102421.63;2113585;28;20052;-77
2022/03/28 02:56:43;;;;;;;10.15;4.85;;;;;;;9.94;59.86;102427.53;2105452;28;20095;-79
2022/03/28 02:58:05;;;;;;;10.45;5.18;;;;;;;9.85;60.10;102416.56;2102686;28;20503;-78
2022/03/28 02:59:27;;;;;;;12.45;5.68;;;;;;;9.84;60.07;102422.69;2110447;28;20047;-76
2022/03/28 03:00:48;;;;;;;14.10;6.28;;;;;;;9.87;60.23;102417.53;2110959;28;20105;-78
2022/03/28 03:02:11;;;;;;;8.05;4.75;;;;;;;9.90;60.06;102412.41;2108127;28;20047;-78
2022/03/28 03:03:32;;;;;;;10.45;4.90;;;;;;;9.93;59.71;102412.53;2102604;28;20107;-78
2022/03/28 03:04:55;;;;;;;12.00;5.10;;;;;;;9.97;59.72;102417.13;2106812;28;20552;-77
2022/03/28 03:06:16;;;;;;;28.25;16.27;;;;;;;9.99;59.34;102416.34;2111010;28;20047;-78
2022/03/28 03:07:41;;;;;;;16.00;7.47;;;;;;;10.05;59.16;102414.81;2109576;28;20054;-77
2022/03/28 03:09:04;;;;;;;9.88;4.97;;;;;;;10.13;59.07;102418.69;2111125;28;20086;-78
2022/03/28 03:10:27;;;;;;;16.58;6.40;;;;;;;10.21;58.55;102420.88;2111142;28;20119;-78
2022/03/28 03:11:50;;;;;;;12.68;6.45;;;;;;;10.26;58.57;102416.69;2110979;28;20075;-79
2022/03/28 03:13:11;;;;;;;9.70;4.63;;;;;;;10.28;58.23;102417.69;2111044;28;20080;-78
2022/03/28 03:14:34;;;;;;;10.02;5.57;;;;;;;10.32;58.07;102424.88;2110866;28;20144;-78
2022/03/28 03:15:56;;;;;;;10.18;6.82;;;;;;;10.35;57.91;102426.75;2109411;28;20043;-77
2022/03/28 03:17:19;;;;;;;10.90;5.10;;;;;;;10.39;57.74;102421.66;2118663;28;20491;-77
2022/03/28 03:18:40;;;;;;;10.98;5.53;;;;;;;10.42;57.48;102427.94;2113526;28;20171;-78
2022/03/28 03:20:03;;;;;;;9.90;4.93;;;;;;;10.44;57.33;102420.94;2110732;28;20059;-77
2022/03/28 03:21:24;;;;;;;10.63;4.75;;;;;;;10.45;57.05;102421.03;2112420;28;20039;-78
2022/03/28 03:22:48;;;;;;;9.18;4.28;;;;;;;10.47;57.10;102421.09;2118996;28;20049;-77
2022/03/28 03:24:10;;;;;;;11.07;4.90;;;;;;;10.48;56.99;102422.91;2113392;28;20135;-76
2022/03/28 03:25:34;;;;;;;10.63;4.50;;;;;;;10.49;56.92;102414.16;2110863;28;20056;-77
2022/03/28 03:26:56;;;;;;;21.58;11.77;;;;;;;10.48;56.99;102425.53;2111906;28;20174;-78
2022/03/28 03:28:20;;;;;;;13.00;6.05;;;;;;;10.48;57.10;102429.09;2103852;28;20431;-77
2022/03/28 03:29:43;;;;;;;10.13;5.60;;;;;;;10.47;56.83;102424.66;2113833;27;20097;-78
2022/03/28 03:31:06;;;;;;;9.60;4.22;;;;;;;10.46;56.99;102425.47;2115259;28;20047;-78
2022/03/28 03:32:28;;;;;;;6.72;3.53;;;;;;;10.51;56.70;102423.03;2114992;28;20108;-78
2022/03/28 03:33:51;;;;;;;7.57;3.97;;;;;;;10.58;56.60;102420.69;2111165;28;20471;-78
2022/03/28 03:35:13;;;;;;;7.03;3.60;;;;;;;10.64;56.32;102425.34;2107263;28;20084;-78
2022/03/28 03:36:36;;;;;;;8.65;3.83;;;;;;;10.72;56.06;102426.56;2111268;28;20116;-77
2022/03/28 03:37:58;;;;;;;6.97;3.80;;;;;;;10.79;55.93;102420.69;2106992;28;20533;-78
2022/03/28 03:39:22;;;;;;;6.85;3.72;;;;;;;10.81;55.72;102426.97;2104234;28;20508;-79
2022/03/28 03:40:44;;;;;;;9.10;4.53;;;;;;;10.82;55.60;102435.78;2107071;28;20103;-78
2022/03/28 03:42:08;;;;;;;7.80;3.58;;;;;;;10.83;55.51;102433.19;2112500;28;20128;-78
2022/03/28 03:43:30;;;;;;;8.27;4.03;;;;;;;10.82;55.49;102441.06;2111241;28;20109;-78
2022/03/28 03:44:53;;;;;;;10.20;3.78;;;;;;;10.79;55.68;102439.19;2103511;28;20056;-78
2022/03/28 03:46:15;;;;;;;13.13;4.80;;;;;;;10.74;55.70;102439.00;2101462;28;20036;-79
2022/03/28 03:47:38;;;;;;;7.70;4.40;;;;;;;10.72;55.98;102439.78;2103868;28;20147;-79
2022/03/28 03:49:01;;;;;;;9.30;4.53;;;;;;;10.72;55.94;102442.41;2111779;27;20044;-79
2022/03/28 03:50:24;;;;;;;8.05;4.53;;;;;;;10.73;55.73;102434.56;2108629;28;20048;-79
2022/03/28 03:51:46;;;;;;;8.68;3.72;;;;;;;10.74;55.69;102444.31;2112583;28;20501;-78
2022/03/28 03:53:11;;;;;;;7.68;4.78;;;;;;;10.74;55.47;102453.97;2114758;28;20134;-78
2022/03/28 03:54:33;;;;;;;6.35;3.53;;;;;;;10.73;55.60;102453.06;2104321;28;20040;-79
2022/03/28 03:55:56;;;;;;;10.88;4.47;;;;;;;10.75;55.59;102455.78;2118093;27;20158;-78
2022/03/28 03:57:18;;;;;;;11.38;4.20;;;;;;;10.75;55.47;102446.09;2113842;28;20040;-79
2022/03/28 03:58:40;;;;;;;9.13;3.97;;;;;;;10.75;55.13;102451.38;2115040;28;20419;-78
2022/03/28 04:00:03;;;;;;;5.78;3.35;;;;;;;10.75;55.18;102448.75;2112111;28;20510;-78
2022/03/28 04:01:34;;;;;;;8.50;3.90;;;;;;;10.76;55.04;102444.38;2114921;28;20138;-79
2022/03/28 04:02:56;;;;;;;7.30;3.85;;;;;;;10.80;55.04;102446.28;2112266;28;20491;-78
2022/03/28 04:04:19;;;;;;;6.35;2.60;;;;;;;10.86;54.07;102449.19;2112231;28;20043;-79
2022/03/28 04:05:41;;;;;;;7.63;4.00;;;;;;;10.97;52.85;102446.97;2110438;27;20126;-79
2022/03/28 04:07:03;;;;;;;9.27;4.97;;;;;;;11.09;52.08;102443.09;2112391;28;20056;-78
2022/03/28 04:08:27;;;;;;;10.57;4.20;;;;;;;11.19;51.55;102453.22;2112131;28;20043;-79
2022/03/28 04:09:50;;;;;;;14.43;4.80;;;;;;;11.26;51.70;102454.34;2111600;28;20494;-79
2022/03/28 04:11:13;;;;;;;9.98;5.25;;;;;;;11.30;51.79;102463.28;2111627;28;20035;-79
2022/03/28 04:12:36;;;;;;;8.18;4.53;;;;;;;11.30;51.93;102463.28;2103757;28;20044;-79
2022/03/28 04:13:57;;;;;;;11.07;4.15;;;;;;;11.28;51.95;102460.59;2108137;28;20036;-79
2022/03/28 04:15:20;;;;;;;11.82;4.90;;;;;;;11.29;52.04;102461.53;2109440;28;20142;-77
2022/03/28 04:16:42;;;;;;;9.80;4.65;;;;;;;11.28;52.21;102459.72;2112574;28;20130;-79
2022/03/28 04:18:05;;;;;;;8.02;4.22;;;;;;;11.24;52.53;102463.03;2106643;28;20078;-79
2022/03/28 04:19:26;;;;;;;8.93;4.30;;;;;;;11.26;52.23;102467.56;2112204;28;20050;-78
2022/03/28 04:20:49;;;;;;;7.72;4.00;;;;;;;11.31;52.18;102466.00;2108547;28;20623;-79
2022/03/28 04:22:11;;;;;;;8.07;4.18;;;;;;;11.37;52.01;102471.53;2111451;28;20043;-79
2022/03/28 04:23:34;;;;;;;10.85;4.32;;;;;;;11.44;51.87;102473.59;2112170;28;20086;-79
2022/03/28 04:24:56;;;;;;;10.05;4.15;;;;;;;11.46;51.97;102468.38;2111484;28;20058;-79
2022/03/28 04:26:19;;;;;;;10.23;3.83;;;;;;;11.45;51.98;102472.75;2111182;28;20048;-79
2022/03/28 04:27:41;;;;;;;9.50;4.43;;;;;;;11.47;52.04;102470.16;2112058;28;20035;-79
2022/03/28 04:29:03;;;;;;;;;;;;;;;11.48;51.93;102474.63;2114064;28;20050;-80
2022/03/28 04:30:26;;;;;;;6.95;4.10;;;;;;;11.47;51.88;102472.81;2103056;28;20002;-78
2022/03/28 04:31:49;;;;;;;6.95;3.80;;;;;;;11.47;51.91;102473.72;2107185;28;20490;-79
2022/03/28 04:33:11;;;;;;;9.32;4.35;;;;;;;11.48;51.86;102482.56;2111776;28;20440;-79
2022/03/28 04:34:33;;;;;;;11.20;3.70;;;;;;;11.48;51.72;102475.53;2112315;28;20060;-79
2022/03/28 04:35:55;;;;;;;9.57;4.85;;;;;;;11.54;51.47;102472.22;2113956;27;20049;-79
2022/03/28 04:37:16;;;;;;;9.30;3.92;;;;;;;11.59;51.32;102473.28;2112299;28;20044;-79
2022/03/28 04:38:40;;;;;;;9.55;4.70;;;;;;;11.65;50.70;102478.81;2111671;28;20423;-79
2022/03/28 04:40:04;;;;;;;7.43;4.00;;;;;;;11.71;50.65;102478.16;2110833;28;20050;-79
2022/03/28 04:41:26;;;;;;;8.77;4.75;;;;;;;11.75;50.48;102477.47;2111957;28;20036;-78
2022/03/28 04:42:49;;;;;;;10.13;5.70;;;;;;;11.77;50.36;102476.66;2112176;28;20075;-79
2022/03/28 04:44:12;;;;;;;12.70;5.90;;;;;;;11.78;50.39;102474.94;2110814;28;20047;-79
2022/03/28 04:45:34;;;;;;;13.95;6.60;;;;;;;11.77;50.56;102473.13;2111257;28;20048;-79
2022/03/28 04:46:55;;;;;;;13.50;5.40;;;;;;;11.79;50.66;102482.03;2110608;28;20043;-79
2022/03/28 04:48:18;;;;;;;11.30;4.57;;;;;;;11.78;50.35;102481.13;2111608;28;20044;-79
2022/03/28 04:49:41;;;;;;;12.57;3.85;;;;;;;11.82;49.94;102476.84;2111060;28;20051;-79
2022/03/28 04:51:03;;;;;;;11.48;6.10;;;;;;;11.87;49.56;102485.88;2116073;27;20051;-79
2022/03/28 04:52:26;;;;;;;12.05;5.80;;;;;;;11.89;49.95;102487.72;2106227;28;20100;-79
2022/03/28 04:53:50;;;;;;;12.25;6.13;;;;;;;11.89;50.06;102493.00;2109582;27;20044;-77
2022/03/28 04:55:13;;;;;;;11.95;4.97;;;;;;;11.86;50.29;102486.72;2110298;28;20047;-79
2022/03/28 04:56:35;;;;;;;12.68;5.65;;;;;;;11.83;50.60;102483.94;2106516;28;20143;-79
2022/03/28 04:58:00;;;;;;;12.13;5.05;;;;;;;11.76;50.95;102490.75;2112072;28;20051;-80
2022/03/28 04:59:22;;;;;;;16.27;5.82;;;;;;;11.69;51.24;102488.66;2111015;28;20113;-80
2022/03/28 05:00:45;;;;;;;8.95;4.32;;;;;;;11.64;51.58;102490.22;2111080;28;20046;-80
2022/03/28 05:02:07;;;;;;;15.43;5.47;;;;;;;11.54;51.68;102488.09;2110737;28;20070;-79
2022/03/28 05:03:29;;;;;;;21.45;8.60;;;;;;;11.47;51.85;102492.22;2110402;28;20548;-79
2022/03/28 05:04:52;;;;;;;13.05;6.68;;;;;;;11.48;51.98;102491.41;2116490;27;20039;-78
2022/03/28 05:06:14;;;;;;;12.38;6.60;;;;;;;11.55;51.73;102492.53;2109272;28;20130;-79
2022/03/28 05:07:37;;;;;;;13.00;6.53;;;;;;;11.63;51.91;102491.06;2103220;28;20048;-78
2022/03/28 05:09:01;;;;;;;13.75;4.90;;;;;;;11.70;51.57;102495.75;2111594;28;20032;-79
2022/03/28 05:10:23;;;;;;;12.55;5.80;;;;;;;11.79;51.48;102492.63;2113644;28;20055;-79
2022/03/28 05:11:45;;;;;;;11.18;4.72;;;;;;;11.87;51.21;102502.66;2110997;28;20047;-79
2022/03/28 05:13:07;;;;;;;11.50;5.65;;;;;;;11.97;51.15;102491.56;2111526;28;20039;-79
2022/03/28 05:14:28;;;;;;;13.45;5.85;;;;;;;12.06;50.98;102500.69;2119359;27;20104;-80
2022/03/28 05:15:51;;;;;;;9.90;5.00;;;;;;;12.14;50.87;102504.53;2113385;28;20036;-79
2022/03/28 05:17:14;;;;;;;11.60;5.28;;;;;;;12.23;50.86;102504.84;2108495;28;20040;-78
2022/03/28 05:18:36;;;;;;;13.35;5.97;;;;;;;12.32;50.96;102508.75;2112135;28;20496;-79
2022/03/28 05:19:59;;;;;;;11.75;5.35;;;;;;;12.40;51.16;102510.78;2112948;28;20039;-79
2022/03/28 05:21:21;;;;;;;10.43;5.88;;;;;;;12.44;51.11;102504.75;2110786;28;20043;-78
2022/03/28 05:22:46;;;;;;;13.27;5.80;;;;;;;12.51;51.05;102507.66;2111646;28;20051;-78
2022/03/28 05:24:10;;;;;;;11.43;5.70;;;;;;;12.65;50.95;102503.78;2111802;28;20377;-79
2022/03/28 05:25:32;;;;;;;14.48;5.40;;;;;;;12.76;50.82;102491.78;2110951;28;20055;-79
2022/03/28 05:26:54;;;;;;;8.02;4.57;;;;;;;12.84;50.62;102488.50;2110590;28;20423;-79
2022/03/28 05:28:17;;;;;;;9.23;4.97;;;;;;;12.91;50.37;102485.22;2103051;28;20040;-78
2022/03/28 05:29:39;;;;;;;10.27;4.78;;;;;;;13.01;50.44;102482.00;2103629;28;20055;-79
2022/03/28 05:31:02;;;;;;;11.85;5.30;;;;;;;13.12;50.55;102480.63;2110928;28;20063;-79
2022/03/28 05:32:24;;;;;;;8.18;4.47;;;;;;;13.24;50.74;102473.09;2109461;28;20138;-79
2022/03/28 05:33:47;;;;;;;10.23;4.55;;;;;;;13.34;50.56;102466.31;2112641;28;20152;-79
2022/03/28 05:35:11;;;;;;;8.00;4.00;;;;;;;13.46;50.50;102462.28;2117018;27;20043;-79
2022/03/28 05:36:35;;;;;;;7.43;3.75;;;;;;;13.58;50.37;102464.44;2106398;28;20402;-79
2022/03/28 05:37:58;;;;;;;6.95;4.25;;;;;;;13.66;50.21;102454.94;2105714;28;20427;-79
2022/03/28 05:39:22;;;;;;;8.30;3.55;;;;;;;13.75;50.16;102454.31;2103292;28;20147;-78
2022/03/28 05:40:45;;;;;;;8.77;4.05;;;;;;;13.81;50.02;102455.41;2116283;27;20507;-79
2022/03/28 05:42:08;;;;;;;8.85;4.10;;;;;;;13.89;49.99;102452.97;2105507;28;20095;-79
2022/03/28 05:43:31;;;;;;;10.80;4.57;;;;;;;13.98;49.85;102446.16;2119512;27;20043;-79
2022/03/28 05:44:53;;;;;;;9.20;4.80;;;;;;;14.09;49.62;102453.56;2110038;28;20049;-79
2022/03/28 05:46:18;;;;;;;17.20;5.75;;;;;;;14.15;49.45;102451.97;2111437;28;20046;-79
2022/03/28 05:47:41;;;;;;;22.30;10.45;;;;;;;14.20;49.38;102449.44;2113345;28;21207;-79
2022/03/28 05:49:03;;;;;;;19.38;11.10;;;;;;;14.24;49.29;102448.69;2109909;28;20392;-79
2022/03/28 05:50:26;;;;;;;22.52;9.77;;;;;;;14.30;49.41;102447.09;2108673;28;20495;-79
2022/03/28 05:51:48;;;;;;;16.40;8.05;;;;;;;14.34;49.55;102448.97;2111610;28;20055;-79
2022/03/28 05:53:13;;;;;;;18.20;7.95;;;;;;;14.30;49.82;102440.88;2111208;28;20035;-79
2022/03/28 05:54:37;;;;;;;17.48;8.68;;;;;;;14.24;50.07;102446.91;2111524;28;20372;-80
2022/03/28 05:55:59;;;;;;;20.40;9.70;;;;;;;14.22;50.28;102448.63;2110800;28;20039;-79
2022/03/28 05:57:21;;;;;;;14.73;7.43;;;;;;;14.28;50.39;102451.47;2111201;28;20051;-79
2022/03/28 05:58:44;;;;;;;10.13;5.38;;;;;;;14.32;50.63;102457.75;2111349;28;20035;-79
2022/03/28 06:00:09;;;;;;;10.27;5.68;;;;;;;14.35;50.71;102464.06;2114284;27;20063;-79
2022/03/28 06:01:35;;;;;;;12.77;6.10;;;;;;;14.35;50.77;102466.72;2116692;27;20530;-79
2022/03/28 06:02:58;;;;;;;11.65;5.65;;;;;;;14.36;50.98;102471.19;2113185;28;20043;-79
2022/03/28 06:04:19;;;;;;;12.75;6.90;;;;;;;14.35;51.04;102473.78;2110756;28;20047;-77
2022/03/28 06:05:41;;;;;;;14.18;8.35;;;;;;;14.34;51.41;102462.25;2111695;27;20134;-79
2022/03/28 06:07:04;;;;;;;13.73;6.15;;;;;;;14.31;51.93;102467.47;2107700;28;20036;-79
2022/03/28 06:08:27;;;;;;;12.02;5.80;;;;;;;14.30;51.98;102467.44;2112998;27;20047;-79
2022/03/28 06:09:51;;;;;;;13.98;6.30;;;;;;;14.31;51.92;102467.47;2111726;28;20131;-79
2022/03/28 06:11:14;;;;;;;13.27;6.30;;;;;;;14.33;52.00;102465.75;2116123;27;20054;-78
2022/03/28 06:12:36;;;;;;;14.25;6.88;;;;;;;14.34;51.96;102470.22;2109882;28;20047;-79
2022/03/28 06:14:01;;;;;;;13.13;7.20;;;;;;;14.34;51.78;102464.00;2106936;28;20055;-79
2022/03/28 06:15:24;;;;;;;16.33;6.65;;;;;;;14.30;51.65;102463.03;2115624;27;20042;-79
2022/03/28 06:16:47;;;;;;;12.40;6.30;;;;;;;14.28;51.61;102454.13;2109079;28;20111;-78
2022/03/28 06:18:10;;;;;;;14.60;6.68;;;;;;;14.27;51.17;102454.06;2107837;28;20046;-79
2022/03/28 06:19:33;;;;;;;14.07;6.18;;;;;;;14.28;50.50;102453.22;2107440;28;20043;-80
2022/03/28 06:20:55;;;;;;;13.32;6.57;;;;;;;14.30;50.23;102460.38;2110159;28;20837;-78
2022/03/28 06:22:18;;;;;;;12.98;6.45;;;;;;;14.33;49.94;102451.56;2110901;28;20051;-79
2022/03/28 06:23:40;;;;;;;17.48;6.82;;;;;;;14.36;49.63;102455.22;2111215;28;20051;-80